This is the latest recevied weather packets stored in our database for station/object TAPIOLA. If no packets are shown the sender has not sent any weather packets the latest 10 day(s).
| Time | Temp. | Humidity | Pressure | Rain* | Wind** | Luminosity | Snow |
|---|---|---|---|---|---|---|---|
| 1777068386 | 4.44° C | 57% | 1003.1 hPa | 0 mm | - | - | - |
| 1777067186 | 4.44° C | 57% | 1003.5 hPa | 0 mm | - | - | - |
| 1777065986 | 3.33° C | 59% | 1003.6 hPa | 0 mm | - | - | - |
| 1777064785 | 3.89° C | 58% | 1003.7 hPa | 0 mm | - | - | - |
| 1777063585 | 4.44° C | 55% | 1003.7 hPa | 0 mm | - | - | - |
| 1777062385 | 3.89° C | 57% | 1003.9 hPa | 0 mm | - | - | - |
| 1777061185 | 4.44° C | 53% | 1004.4 hPa | 0 mm | - | - | - |
| 1777059985 | 5° C | 52% | 1004.4 hPa | 0 mm | - | - | - |
| 1777058785 | 5.56° C | 49% | 1004.4 hPa | 0 mm | - | - | - |
| 1777057585 | 6.67° C | 46% | 1004.4 hPa | 0 mm | - | - | - |
| 1777056385 | 7.22° C | 43% | 1004.6 hPa | 0 mm | - | - | - |
| 1777055184 | 7.78° C | 41% | 1004.6 hPa | 0 mm | - | - | - |
| 1777053985 | 8.33° C | 39% | 1004.6 hPa | 0 mm | - | - | - |
| 1777052784 | 8.89° C | 37% | 1004.8 hPa | 0 mm | - | - | - |
| 1777051584 | 9.44° C | 36% | 1004.7 hPa | 0 mm | - | - | - |
| 1777050384 | 10° C | 34% | 1004.6 hPa | 0 mm | - | - | - |
| 1777049184 | 10° C | 33% | 1004.5 hPa | 0 mm | - | - | - |
| 1777047984 | 10.56° C | 32% | 1004.6 hPa | 0 mm | - | - | - |
| 1777046784 | 10.56° C | 30% | 1004.5 hPa | 0 mm | - | - | - |
| 1777045584 | 11.11° C | 30% | 1004.5 hPa | 0 mm | - | - | - |
| 1777044384 | 11.11° C | 29% | 1004.6 hPa | 0 mm | - | - | - |
| 1777043184 | 11.67° C | 29% | 1004.7 hPa | 0 mm | - | - | - |
| 1777041984 | 11.67° C | 27% | 1004.7 hPa | 0 mm | - | - | - |
| 1777040784 | 11.67° C | 28% | 1004.7 hPa | 0 mm | - | - | - |
| 1777039584 | 11.67° C | 29% | 1004.9 hPa | 0 mm | - | - | - |
* Rain latest hour (hover to see other rain measurements)
** Current wind speed in m/s (hover to see current wind gust speed)